LavenderCAM.net
Leatherhead Weather
 
Leatherhead Weather
 
 





Aviation weather for

London Heathrow (EGLL) and London Gatwick (EGKK)



London Heathrow (EGLL) METAR / Surface Actual
London / Heathrow Airport, United Kingdom (EGLL) 51-29N 000-27W 0M
Jan 20, 2019 - 03:20 AM EST / 2019.01.20 0820 UTC
Wind: Variable at 2 MPH (2 KT):0
Visibility: greater than 7 mile(s):0
Sky conditions: overcast
Temperature: 35 F (2 C)
Dew Point: 30 F (-1 C)
Relative Humidity: 80%
Pressure (altimeter): 30.00 in. Hg (1016 hPa)
ob: EGLL 200820Z AUTO VRB02KT 9999 OVC020 02/M01 Q1016 NOSIG
cycle: 8
London Heathrow (EGLL) TAF / Forecast
2019/01/20 06:09
TAF EGLL 200456Z 2006/2112 03004KT 9999 FEW012 
      TEMPO 2006/2010 7000 PROB30 
      TEMPO 2006/2009 4000 BR BKN012 
      TEMPO 2019/2112 7000 BKN010 PROB30 
      TEMPO 2104/2110 3000 BR BKN003


London Gatwick (EGKK) METAR / Surface Actual
London / Gatwick Airport, United Kingdom (EGKK) 51-09N 000-11W 0M
Jan 20, 2019 - 03:20 AM EST / 2019.01.20 0820 UTC
Wind: from the NNE (030 degrees) at 6 MPH (5 KT) (direction variable):0
Visibility: greater than 7 mile(s):0
Sky conditions: mostly cloudy
Temperature: 35 F (2 C)
Windchill: 30 F (-1 C):1
Dew Point: 30 F (-1 C)
Relative Humidity: 80%
Pressure (altimeter): 29.97 in. Hg (1015 hPa)
ob: EGKK 200820Z 03005KT 360V070 9999 BKN018 02/M01 Q1015
cycle: 8
London Gatwick (EGKK) TAF / Forecast
2019/01/20 06:09
TAF EGKK 200500Z 2006/2112 04005KT 9999 BKN016 
      TEMPO 2006/2011 BKN013 PROB30 2006/2009 8000 PROB30 2018/2021 6000 PROB30 2021/2111 3000 BR PROB30 
      TEMPO 2105/2112 BKN010